Terminal Aerodrome Forecast
Issued by NWS

Home | Current Version | Previous Version | Text Only | Print | Product List | Glossary On
Versions: 1 2 3 4 5 6 7 8 9 10 11 12 13 14 15 16 17 18 19
000
FTUS41 KBTV 051250 AAA
TAFRUT
TAF AMD
KRUT 051250Z 0513/0612 14010KT 6SM -SN BR SCT010 OVC035
     FM051600 16006KT 4SM -SHSN BR OVC025
     FM051900 18005KT P6SM OVC015
     FM052300 27004KT P6SM OVC015
     FM060300 32005KT P6SM OVC035=

USA.gov is the U.S. government's official web portal to all federal, state and local government web resources and services.